createdAt,value
2022-11-29T00:01:32.519Z,96646.88
2022-11-29T00:03:58.769Z,96642.59
2022-11-29T00:06:25.135Z,96642.03
2022-11-29T00:08:51.389Z,96637.50
2022-11-29T00:11:17.660Z,96639.84
2022-11-29T00:13:43.921Z,96635.56
2022-11-29T00:16:10.189Z,96632.41
2022-11-29T00:18:36.537Z,96633.47
2022-11-29T00:21:02.885Z,96636.47
2022-11-29T00:23:29.157Z,96629.75
2022-11-29T00:25:55.414Z,96629.97
2022-11-29T00:28:21.667Z,96620.69
2022-11-29T00:30:47.994Z,96622.78
2022-11-29T00:33:14.294Z,96621.19
2022-11-29T00:35:40.565Z,96627.09
2022-11-29T00:38:06.818Z,96623.28
2022-11-29T00:40:33.078Z,96620.59
2022-11-29T00:42:59.327Z,96621.91
2022-11-29T00:45:25.577Z,96620.84
2022-11-29T00:47:51.809Z,96624.03
2022-11-29T00:50:18.078Z,96618.13
2022-11-29T00:52:44.347Z,96617.31
2022-11-29T00:55:10.587Z,96625.06
2022-11-29T00:57:36.851Z,96615.13
2022-11-29T01:00:03.102Z,96626.13
2022-11-29T01:02:29.384Z,96620.56
2022-11-29T01:04:55.679Z,96611.19
2022-11-29T01:07:22.036Z,96616.28
2022-11-29T01:09:48.344Z,96619.50
2022-11-29T01:12:14.592Z,96615.47
2022-11-29T01:14:40.848Z,96620.78
2022-11-29T01:17:07.129Z,96620.56
2022-11-29T01:19:33.413Z,96625.31
2022-11-29T01:21:59.697Z,96618.38
2022-11-29T01:24:25.930Z,96614.88
2022-11-29T01:26:52.174Z,96617.56
2022-11-29T01:29:18.414Z,96619.16
2022-11-29T01:31:44.650Z,96620.22
2022-11-29T01:34:10.881Z,96614.88
2022-11-29T01:36:37.121Z,96612.22
2022-11-29T01:39:03.378Z,96617.56
2022-11-29T01:41:29.615Z,96618.38
2022-11-29T01:43:55.900Z,96612.56
2022-11-29T01:46:22.245Z,96605.38
2022-11-29T01:48:48.550Z,96617.88
2022-11-29T01:51:14.867Z,96617.13
2022-11-29T01:53:41.194Z,96619.22
2022-11-29T01:56:07.531Z,96609.38
2022-11-29T01:58:33.810Z,96607.22
2022-11-29T02:01:00.105Z,96606.66
2022-11-29T02:03:26.418Z,96597.53
2022-11-29T02:05:52.669Z,96613.97
2022-11-29T02:08:18.928Z,96603.56
2022-11-29T02:10:45.197Z,96602.53
2022-11-29T02:13:11.468Z,96594.28
2022-11-29T02:15:37.733Z,96600.66
2022-11-29T02:18:04.063Z,96601.13
2022-11-29T02:20:30.306Z,96598.94
2022-11-29T02:22:56.571Z,96596.28
2022-11-29T02:25:22.892Z,96604.53
2022-11-29T02:27:49.141Z,96604.16
2022-11-29T02:30:15.437Z,96605.78
2022-11-29T02:32:41.687Z,96600.44
2022-11-29T02:35:07.923Z,96602.66
2022-11-29T02:37:34.180Z,96608.56
2022-11-29T02:40:00.437Z,96603.22
2022-11-29T02:42:26.681Z,96594.75
2022-11-29T02:44:52.948Z,96602.75
2022-11-29T02:47:19.198Z,96603.22
2022-11-29T02:49:45.445Z,96604.53
2022-11-29T02:52:11.749Z,96607.06
2022-11-29T02:54:38.012Z,96604.06
2022-11-29T02:57:04.263Z,96600.81
2022-11-29T02:59:30.501Z,96606.63
2022-11-29T03:01:56.749Z,96604.78
2022-11-29T03:04:23.017Z,96595.41
2022-11-29T03:06:49.270Z,96603.97
2022-11-29T03:09:15.509Z,96602.59
2022-11-29T03:11:41.763Z,96600.72
2022-11-29T03:14:08.018Z,96596.91
2022-11-29T03:16:38.340Z,96590.78
2022-11-29T03:19:07.680Z,96596.34
2022-11-29T03:21:33.928Z,96594.50
2022-11-29T03:24:00.170Z,96600.06
2022-11-29T03:26:26.432Z,96599.34
2022-11-29T03:28:52.700Z,96601.78
2022-11-29T03:31:19.001Z,96599.91
2022-11-29T03:33:45.258Z,96602.00
2022-11-29T03:36:11.539Z,96604.09
2022-11-29T03:38:37.802Z,96597.97
2022-11-29T03:41:04.044Z,96603.28
2022-11-29T03:43:30.301Z,96593.69
2022-11-29T03:45:56.578Z,96591.03
2022-11-29T03:48:22.915Z,96599.25
2022-11-29T03:50:49.166Z,96600.88
2022-11-29T03:53:15.407Z,96602.16
2022-11-29T03:55:41.653Z,96597.06
2022-11-29T03:58:07.909Z,96603.44
2022-11-29T04:00:34.180Z,96600.19
2022-11-29T04:03:00.484Z,96611.09
2022-11-29T04:05:26.757Z,96609.00
2022-11-29T04:07:53.076Z,96607.16
2022-11-29T04:10:19.401Z,96607.94
2022-11-29T04:12:45.781Z,96609.22
2022-11-29T04:15:15.445Z,96612.13
2022-11-29T04:17:42.007Z,96612.59
2022-11-29T04:20:08.260Z,96607.75
2022-11-29T04:22:34.557Z,96609.59
2022-11-29T04:25:00.815Z,96619.09
2022-11-29T04:27:27.076Z,96614.25
2022-11-29T04:29:53.347Z,96617.97
2022-11-29T04:32:19.581Z,96614.72
2022-11-29T04:34:46.270Z,96619.00
2022-11-29T04:37:12.657Z,96621.91
2022-11-29T04:39:38.896Z,96623.75
2022-11-29T04:42:05.135Z,96625.28
2022-11-29T04:44:31.382Z,96624.94
2022-11-29T04:46:57.621Z,96626.22
2022-11-29T04:49:23.897Z,96620.06
2022-11-29T04:51:50.150Z,96625.41
2022-11-29T04:54:16.442Z,96627.25
2022-11-29T04:56:42.715Z,96621.34
2022-11-29T04:59:08.969Z,96628.53
2022-11-29T05:01:35.282Z,96628.75
2022-11-29T05:04:01.572Z,96629.56
2022-11-29T05:06:27.815Z,96625.88
2022-11-29T05:08:54.065Z,96633.03
2022-11-29T05:11:26.268Z,96641.03
2022-11-29T05:13:53.139Z,96638.59
2022-11-29T05:16:19.470Z,96635.69
2022-11-29T05:18:45.723Z,96641.84
2022-11-29T05:21:11.993Z,96635.81
2022-11-29T05:23:38.254Z,96639.75
2022-11-29T05:26:04.499Z,96634.19
2022-11-29T05:28:30.738Z,96642.41
2022-11-29T05:30:57.018Z,96642.66
2022-11-29T05:33:23.289Z,96646.34
2022-11-29T05:35:49.541Z,96638.13
2022-11-29T05:38:15.798Z,96651.91
2022-11-29T05:40:42.123Z,96653.75
2022-11-29T05:43:08.369Z,96643.09
2022-11-29T05:45:34.626Z,96653.53
2022-11-29T05:48:00.936Z,96649.25
2022-11-29T05:50:27.180Z,96653.75
2022-11-29T05:52:53.430Z,96652.72
2022-11-29T05:55:19.703Z,96657.22
2022-11-29T05:57:45.942Z,96658.28
2022-11-29T06:00:12.202Z,96659.66
2022-11-29T06:02:38.507Z,96659.91
2022-11-29T06:05:04.779Z,96664.16
2022-11-29T06:07:31.110Z,96662.09
2022-11-29T06:10:01.509Z,96660.25
2022-11-29T06:12:28.176Z,96665.91
2022-11-29T06:14:54.423Z,96659.78
2022-11-29T06:17:20.717Z,96669.84
2022-11-29T06:19:46.982Z,96675.63
2022-11-29T06:22:13.214Z,96670.88
2022-11-29T06:24:39.457Z,96672.16
2022-11-29T06:27:05.729Z,96681.53
2022-11-29T06:29:31.988Z,96674.00
2022-11-29T06:31:58.225Z,96675.63
2022-11-29T06:34:30.399Z,96676.44
2022-11-29T06:36:57.088Z,96675.41
2022-11-29T06:39:23.353Z,96685.25
2022-11-29T06:41:49.636Z,96681.41
2022-11-29T06:44:15.904Z,96692.53
2022-11-29T06:46:42.274Z,96696.47
2022-11-29T06:49:08.538Z,96696.13
2022-11-29T06:51:34.807Z,96693.69
2022-11-29T06:54:01.074Z,96701.91
2022-11-29T06:56:27.359Z,96692.06
2022-11-29T06:58:53.630Z,96701.56
2022-11-29T07:01:20.007Z,96702.94
2022-11-29T07:03:46.300Z,96696.34
2022-11-29T07:06:12.586Z,96695.31
2022-11-29T07:08:38.848Z,96700.97
2022-11-29T07:11:05.127Z,96706.19
2022-11-29T07:13:31.367Z,96711.75
2022-11-29T07:15:57.667Z,96703.97
2022-11-29T07:18:23.946Z,96715.44
2022-11-29T07:20:50.218Z,96711.50
2022-11-29T07:23:16.478Z,96713.34
2022-11-29T07:25:42.718Z,96708.03
2022-11-29T07:28:09.032Z,96716.25
2022-11-29T07:30:35.265Z,96712.78
2022-11-29T07:33:01.621Z,96708.84
2022-11-29T07:35:27.921Z,96713.69
2022-11-29T07:37:54.195Z,96714.16
2022-11-29T07:40:20.469Z,96714.41
2022-11-29T07:42:46.719Z,96718.09
2022-11-29T07:45:13.107Z,96719.13
2022-11-29T07:47:39.453Z,96719.38
2022-11-29T07:50:05.742Z,96721.22
2022-11-29T07:52:31.989Z,96722.03
2022-11-29T07:54:58.266Z,96718.09
2022-11-29T07:57:24.594Z,96732.69
2022-11-29T07:59:50.878Z,96722.25
2022-11-29T08:02:17.208Z,96728.63
2022-11-29T08:04:43.853Z,96739.84
2022-11-29T08:07:10.464Z,96730.59
2022-11-29T08:09:36.759Z,96727.72
2022-11-29T08:12:03.074Z,96727.47
2022-11-29T08:14:29.345Z,96731.75
2022-11-29T08:16:55.633Z,96728.88
2022-11-29T08:19:21.897Z,96730.72
2022-11-29T08:21:48.179Z,96731.53
2022-11-29T08:24:14.465Z,96737.44
2022-11-29T08:26:40.735Z,96731.66
2022-11-29T08:29:07.119Z,96741.25
2022-11-29T08:31:33.428Z,96733.25
2022-11-29T08:33:59.739Z,96742.88
2022-11-29T08:36:26.048Z,96738.94
2022-11-29T08:38:59.295Z,96738.13
2022-11-29T08:41:28.647Z,96745.53
2022-11-29T08:43:54.930Z,96744.25
2022-11-29T08:46:21.276Z,96743.44
2022-11-29T08:48:47.593Z,96744.84
2022-11-29T08:51:13.870Z,96748.78
2022-11-29T08:53:40.123Z,96752.81
2022-11-29T08:56:31.880Z,96756.31
2022-11-29T08:58:53.701Z,96757.09
2022-11-29T09:01:20.007Z,96755.50
2022-11-29T09:03:46.315Z,96754.44
2022-11-29T09:06:12.982Z,96758.50
2022-11-29T09:08:39.336Z,96760.13
2022-11-29T09:11:05.597Z,96762.09
2022-11-29T09:13:31.868Z,96764.53
2022-11-29T09:15:58.155Z,96767.53
2022-11-29T09:18:24.387Z,96764.63
2022-11-29T09:20:50.678Z,96765.22
2022-11-29T09:23:16.941Z,96768.22
2022-11-29T09:25:43.239Z,96764.28
2022-11-29T09:28:09.521Z,96762.78
2022-11-29T09:30:35.799Z,96772.16
2022-11-29T09:33:02.074Z,96776.78
2022-11-29T09:35:28.333Z,96765.09
2022-11-29T09:37:54.576Z,96777.72
2022-11-29T09:40:20.908Z,96775.41
2022-11-29T09:42:47.230Z,96769.59
2022-11-29T09:45:13.483Z,96777.38
2022-11-29T09:47:39.738Z,96773.88
2022-11-29T09:50:05.998Z,96777.94
2022-11-29T09:52:32.272Z,96771.47
2022-11-29T09:54:58.506Z,96770.88
2022-11-29T09:57:24.761Z,96770.06
2022-11-29T09:59:50.993Z,96768.78
2022-11-29T10:02:21.460Z,96771.81
2022-11-29T10:04:48.195Z,96770.53
2022-11-29T10:07:14.461Z,96770.06
2022-11-29T10:09:40.716Z,96772.03
2022-11-29T10:12:06.970Z,96761.59
2022-11-29T10:14:33.233Z,96767.91
2022-11-29T10:16:59.531Z,96763.13
2022-11-29T10:19:25.822Z,96765.34
2022-11-29T10:21:52.060Z,96765.09
2022-11-29T10:24:18.306Z,96765.91
2022-11-29T10:26:44.605Z,96769.72
2022-11-29T10:29:10.880Z,96766.56
2022-11-29T10:31:37.153Z,96764.47
2022-11-29T10:34:05.771Z,96764.25
2022-11-29T10:36:32.054Z,96764.00
2022-11-29T10:38:58.299Z,96761.91
2022-11-29T10:41:24.572Z,96764.59
2022-11-29T10:43:50.845Z,96763.06
2022-11-29T10:46:17.148Z,96760.72
2022-11-29T10:48:43.414Z,96758.63
2022-11-29T10:51:09.650Z,96762.91
2022-11-29T10:53:35.941Z,96756.28
2022-11-29T10:56:02.263Z,96756.38
2022-11-29T10:58:29.037Z,96747.09
2022-11-29T11:00:55.445Z,96748.72
2022-11-29T11:03:21.717Z,96744.19
2022-11-29T11:05:48.112Z,96743.13
2022-11-29T11:08:14.404Z,96745.56
2022-11-29T11:10:40.683Z,96740.22
2022-11-29T11:13:06.944Z,96737.66
2022-11-29T11:15:33.214Z,96742.75
2022-11-29T11:17:59.529Z,96735.31
2022-11-29T11:20:25.781Z,96729.97
2022-11-29T11:22:52.041Z,96739.13
2022-11-29T11:25:18.317Z,96736.53
2022-11-29T11:27:44.717Z,96739.78
2022-11-29T11:30:10.982Z,96742.19
2022-11-29T11:32:37.246Z,96738.09
2022-11-29T11:35:03.517Z,96738.31
2022-11-29T11:37:30.152Z,96736.31
2022-11-29T11:39:56.488Z,96734.22
2022-11-29T11:42:22.811Z,96737.59
2022-11-29T11:44:49.075Z,96734.84
2022-11-29T11:47:15.345Z,96742.69
2022-11-29T11:49:41.610Z,96734.69
2022-11-29T11:52:07.889Z,96731.78
2022-11-29T11:54:34.165Z,96737.69
2022-11-29T11:57:00.406Z,96745.78
2022-11-29T11:59:26.653Z,96749.25
2022-11-29T12:01:52.928Z,96744.97
2022-11-29T12:04:19.170Z,96741.25
2022-11-29T12:06:45.491Z,96749.25
2022-11-29T12:09:11.774Z,96745.78
2022-11-29T12:11:38.064Z,96753.22
2022-11-29T12:14:04.347Z,96746.75
2022-11-29T12:16:30.605Z,96746.50
2022-11-29T12:18:56.853Z,96742.53
2022-11-29T12:21:23.118Z,96750.78
2022-11-29T12:23:49.396Z,96749.97
2022-11-29T12:26:34.464Z,96748.13
2022-11-29T12:29:01.876Z,96747.16
2022-11-29T12:31:28.212Z,96750.97
2022-11-29T12:33:54.520Z,96748.59
2022-11-29T12:36:20.800Z,96748.53
2022-11-29T12:38:47.067Z,96754.03
2022-11-29T12:41:13.372Z,96747.88
2022-11-29T12:43:39.611Z,96742.06
2022-11-29T12:46:05.930Z,96748.19
2022-11-29T12:48:32.297Z,96745.84
2022-11-29T12:50:58.678Z,96748.28
2022-11-29T12:53:27.487Z,96748.28
2022-11-29T12:55:54.132Z,96750.22
2022-11-29T12:58:20.387Z,96739.69
2022-11-29T13:00:46.632Z,96743.00
2022-11-29T13:03:12.941Z,96746.41
2022-11-29T13:05:39.215Z,96747.22
2022-11-29T13:08:05.470Z,96736.88
2022-11-29T13:10:31.737Z,96739.38
2022-11-29T13:12:57.994Z,96737.59
2022-11-29T13:15:24.259Z,96732.19
2022-11-29T13:17:50.548Z,96733.78
2022-11-29T13:20:16.839Z,96732.25
2022-11-29T13:22:43.086Z,96737.34
2022-11-29T13:25:09.351Z,96727.97
2022-11-29T13:27:35.623Z,96730.38
2022-11-29T13:30:01.886Z,96739.22
2022-11-29T13:32:28.134Z,96732.19
2022-11-29T13:34:54.412Z,96736.38
2022-11-29T13:37:20.660Z,96746.09
2022-11-29T13:39:46.890Z,96732.81
2022-11-29T13:42:13.134Z,96730.97
2022-11-29T13:44:39.393Z,96747.16
2022-11-29T13:47:05.655Z,96742.38
2022-11-29T13:49:31.929Z,96737.91
2022-11-29T13:51:58.280Z,96743.50
2022-11-29T13:54:24.526Z,96739.47
2022-11-29T13:56:50.793Z,96737.44
2022-11-29T13:59:17.034Z,96736.63
2022-11-29T14:01:43.339Z,96737.44
2022-11-29T14:04:09.612Z,96745.19
2022-11-29T14:06:35.862Z,96748.69
2022-11-29T14:09:18.440Z,96743.75
2022-11-29T14:11:45.467Z,96746.09
2022-11-29T14:14:11.704Z,96744.72
2022-11-29T14:16:37.946Z,96744.81
2022-11-29T14:19:04.193Z,96739.13
2022-11-29T14:21:30.466Z,96742.06
2022-11-29T14:23:56.712Z,96742.28
2022-11-29T14:26:28.032Z,96749.25
2022-11-29T14:28:55.118Z,96748.94
2022-11-29T14:31:21.449Z,96748.19
2022-11-29T14:33:47.770Z,96741.06
2022-11-29T14:36:14.008Z,96743.44
2022-11-29T14:38:40.266Z,96740.75
2022-11-29T14:41:06.503Z,96748.44
2022-11-29T14:43:32.771Z,96752.16
2022-11-29T14:45:59.033Z,96755.81
2022-11-29T14:48:25.279Z,96757.44
2022-11-29T14:50:51.521Z,96752.66
2022-11-29T14:53:17.785Z,96751.59
2022-11-29T14:55:44.060Z,96751.59
2022-11-29T14:58:10.327Z,96748.28
2022-11-29T15:00:36.604Z,96755.25
2022-11-29T15:03:03.021Z,96759.22
2022-11-29T15:05:29.312Z,96755.47
2022-11-29T15:07:55.610Z,96762.44
2022-11-29T15:10:21.873Z,96753.88
2022-11-29T15:12:48.172Z,96762.94
2022-11-29T15:15:14.447Z,96763.66
2022-11-29T15:17:40.713Z,96762.03
2022-11-29T15:20:06.997Z,96759.63
2022-11-29T15:22:33.316Z,96754.28
2022-11-29T15:24:59.554Z,96761.72
2022-11-29T15:27:25.815Z,96766.72
2022-11-29T15:29:52.096Z,96761.41
2022-11-29T15:32:18.331Z,96763.25
2022-11-29T15:34:44.890Z,96764.53
2022-11-29T15:37:11.395Z,96765.84
2022-11-29T15:39:37.690Z,96774.81
2022-11-29T15:42:03.942Z,96768.59
2022-11-29T15:44:30.204Z,96771.25
2022-11-29T15:46:56.484Z,96781.69
2022-11-29T15:49:22.721Z,96781.94
2022-11-29T15:51:48.985Z,96779.41
2022-11-29T15:54:15.233Z,96781.19
2022-11-29T15:56:41.486Z,96784.66
2022-11-29T15:59:07.747Z,96781.81
2022-11-29T16:01:34.061Z,96780.69
2022-11-29T16:04:00.341Z,96779.28
2022-11-29T16:06:26.621Z,96779.28
2022-11-29T16:08:52.881Z,96785.09
2022-11-29T16:11:19.130Z,96788.00
2022-11-29T16:13:45.394Z,96791.06
2022-11-29T16:16:14.687Z,96797.94
2022-11-29T16:18:40.976Z,96796.53
2022-11-29T16:21:07.215Z,96796.91
2022-11-29T16:23:33.475Z,96805.06
2022-11-29T16:25:59.779Z,96792.56
2022-11-29T16:28:26.061Z,96792.13
2022-11-29T16:30:52.344Z,96804.78
2022-11-29T16:33:18.622Z,96793.56
2022-11-29T16:35:44.900Z,96796.94
2022-11-29T16:38:11.149Z,96801.47
2022-11-29T16:40:37.399Z,96797.84
2022-11-29T16:43:03.679Z,96798.91
2022-11-29T16:45:30.027Z,96803.19
2022-11-29T16:47:56.318Z,96801.69
2022-11-29T16:50:22.560Z,96799.59
2022-11-29T16:52:50.842Z,96799.84
2022-11-29T16:55:21.194Z,96804.94
2022-11-29T16:57:47.447Z,96801.22
2022-11-29T17:00:13.703Z,96798.78
2022-11-29T17:02:39.995Z,96800.31
2022-11-29T17:05:06.258Z,96803.66
2022-11-29T17:07:32.576Z,96799.72
2022-11-29T17:09:58.865Z,96800.75
2022-11-29T17:12:25.118Z,96799.50
2022-11-29T17:14:51.406Z,96807.84
2022-11-29T17:17:17.692Z,96793.59
2022-11-29T17:19:43.963Z,96801.56
2022-11-29T17:22:10.229Z,96803.41
2022-11-29T17:24:36.558Z,96798.47
2022-11-29T17:27:02.843Z,96790.81
2022-11-29T17:29:29.175Z,96800.28
2022-11-29T17:31:55.468Z,96797.53
2022-11-29T17:34:21.783Z,96798.56
2022-11-29T17:36:48.035Z,96800.31
2022-11-29T17:39:14.299Z,96796.13
2022-11-29T17:41:40.554Z,96799.50
2022-11-29T17:44:06.841Z,96802.50
2022-11-29T17:46:33.082Z,96810.25
2022-11-29T17:48:59.357Z,96818.72
2022-11-29T17:51:55.584Z,96808.63
2022-11-29T17:54:11.876Z,96809.44
2022-11-29T17:56:38.146Z,96815.81
2022-11-29T17:59:04.420Z,96817.91
2022-11-29T18:01:30.731Z,96819.88
2022-11-29T18:03:57.062Z,96824.97
2022-11-29T18:06:23.343Z,96828.69
2022-11-29T18:08:49.615Z,96832.03
2022-11-29T18:11:15.878Z,96825.53
2022-11-29T18:13:42.161Z,96833.78
2022-11-29T18:16:08.435Z,96835.38
2022-11-29T18:18:34.722Z,96834.47
2022-11-29T18:21:00.988Z,96839.22
2022-11-29T18:23:27.253Z,96835.63
2022-11-29T18:25:53.544Z,96838.53
2022-11-29T18:28:19.781Z,96844.66
2022-11-29T18:30:46.085Z,96837.72
2022-11-29T18:33:12.360Z,96843.84
2022-11-29T18:35:38.626Z,96837.25
2022-11-29T18:38:20.156Z,96840.94
2022-11-29T18:40:46.442Z,96836.78
2022-11-29T18:43:12.690Z,96838.97
2022-11-29T18:45:38.997Z,96842.81
2022-11-29T18:48:05.310Z,96843.16
2022-11-29T18:50:31.567Z,96847.31
2022-11-29T18:52:57.904Z,96848.81
2022-11-29T18:55:24.243Z,96848.25
2022-11-29T18:57:50.687Z,96849.28
2022-11-29T19:00:17.044Z,96839.44
2022-11-29T19:02:43.432Z,96853.22
2022-11-29T19:05:09.931Z,96846.97
2022-11-29T19:07:36.291Z,96852.41
2022-11-29T19:10:02.579Z,96849.16
2022-11-29T19:12:28.912Z,96851.69
2022-11-29T19:14:55.733Z,96855.97
2022-11-29T19:17:22.262Z,96852.50
2022-11-29T19:19:48.640Z,96856.34
2022-11-29T19:22:15.091Z,96850.06
2022-11-29T19:24:41.416Z,96850.31
2022-11-29T19:27:07.774Z,96849.94
2022-11-29T19:29:45.893Z,96852.34
2022-11-29T19:32:12.349Z,96853.16
2022-11-29T19:34:38.626Z,96849.13
2022-11-29T19:37:04.899Z,96851.09
2022-11-29T19:39:31.180Z,96854.66
2022-11-29T19:41:57.446Z,96857.09
2022-11-29T19:44:29.139Z,96860.47
2022-11-29T19:46:56.210Z,96852.94
2022-11-29T19:49:22.486Z,96858.03
2022-11-29T19:51:48.758Z,96858.03
2022-11-29T19:54:15.061Z,96855.00
2022-11-29T19:56:41.322Z,96860.81
2022-11-29T19:59:07.602Z,96858.97
2022-11-29T20:01:40.378Z,96857.81
2022-11-29T20:04:07.428Z,96855.28
2022-11-29T20:06:33.695Z,96859.09
2022-11-29T20:08:59.973Z,96857.84
2022-11-29T20:11:26.234Z,96869.97
2022-11-29T20:13:52.538Z,96860.50
2022-11-29T20:16:18.874Z,96868.94
2022-11-29T20:18:50.461Z,96858.19
2022-11-29T20:21:17.295Z,96868.69
2022-11-29T20:23:43.599Z,96865.09
2022-11-29T20:26:09.888Z,96859.44
2022-11-29T20:28:36.161Z,96861.53
2022-11-29T20:31:02.482Z,96861.59
2022-11-29T20:33:28.803Z,96858.03
2022-11-29T20:35:55.058Z,96855.69
2022-11-29T20:38:21.313Z,96859.38
2022-11-29T20:40:47.585Z,96860.69
2022-11-29T20:43:13.844Z,96863.78
2022-11-29T20:45:40.113Z,96864.19
2022-11-29T20:48:06.396Z,96866.97
2022-11-29T20:50:32.676Z,96867.91
2022-11-29T20:52:58.976Z,96862.69
2022-11-29T20:55:25.255Z,96865.38
2022-11-29T20:57:51.535Z,96869.28
2022-11-29T21:00:17.813Z,96871.72
2022-11-29T21:02:44.072Z,96875.88
2022-11-29T21:05:10.337Z,96877.88
2022-11-29T21:07:36.624Z,96868.59
2022-11-29T21:10:02.942Z,96868.84
2022-11-29T21:12:29.330Z,96860.38
2022-11-29T21:14:55.810Z,96866.19
2022-11-29T21:17:22.082Z,96869.09
2022-11-29T21:19:48.345Z,96873.25
2022-11-29T21:22:14.605Z,96870.00
2022-11-29T21:24:40.876Z,96865.25
2022-11-29T21:27:07.118Z,96867.09
2022-11-29T21:29:33.371Z,96868.50
2022-11-29T21:31:59.642Z,96868.38
2022-11-29T21:34:25.922Z,96870.72
2022-11-29T21:36:52.250Z,96864.69
2022-11-29T21:39:18.531Z,96868.03
2022-11-29T21:41:44.799Z,96879.97
2022-11-29T21:44:11.081Z,96874.50
2022-11-29T21:46:37.388Z,96876.03
2022-11-29T21:49:03.740Z,96879.03
2022-11-29T21:51:30.017Z,96878.69
2022-11-29T21:53:56.299Z,96880.53
2022-11-29T21:56:22.558Z,96890.84
2022-11-29T21:58:48.810Z,96880.09
2022-11-29T22:01:15.111Z,96879.41
2022-11-29T22:03:41.424Z,96873.03
2022-11-29T22:06:07.674Z,96867.13
2022-11-29T22:08:33.911Z,96866.09
2022-11-29T22:11:00.168Z,96867.94
2022-11-29T22:13:26.519Z,96864.22
2022-11-29T22:15:52.778Z,96857.38
2022-11-29T22:18:19.056Z,96854.63
2022-11-29T22:20:45.317Z,96862.47
2022-11-29T22:23:11.572Z,96856.69
2022-11-29T22:25:37.837Z,96858.06
2022-11-29T22:28:04.103Z,96850.78
2022-11-29T22:30:30.384Z,96853.00
2022-11-29T22:32:56.626Z,96851.94
2022-11-29T22:35:22.890Z,96859.00
2022-11-29T22:37:49.136Z,96867.78
2022-11-29T22:40:15.365Z,96866.41
2022-11-29T22:42:41.624Z,96874.97
2022-11-29T22:45:07.866Z,96870.91
2022-11-29T22:47:34.110Z,96866.72
2022-11-29T22:50:00.400Z,96868.94
2022-11-29T22:52:26.763Z,96866.53
2022-11-29T22:54:53.009Z,96877.41
2022-11-29T22:57:19.260Z,96865.72
2022-11-29T22:59:45.542Z,96861.31
2022-11-29T23:02:11.838Z,96872.09
2022-11-29T23:04:38.130Z,96863.66
2022-11-29T23:07:04.430Z,96873.28
2022-11-29T23:09:30.718Z,96879.88
2022-11-29T23:11:56.975Z,96870.97
2022-11-29T23:14:23.239Z,96870.38
2022-11-29T23:16:49.552Z,96872.84
2022-11-29T23:19:15.879Z,96871.00
2022-11-29T23:21:42.146Z,96865.44
2022-11-29T23:24:08.415Z,96872.50
2022-11-29T23:26:34.695Z,96871.69
2022-11-29T23:29:00.938Z,96866.81
2022-11-29T23:31:27.275Z,96870.59
2022-11-29T23:33:53.600Z,96864.84
2022-11-29T23:36:19.874Z,96861.25
2022-11-29T23:38:46.126Z,96864.50
2022-11-29T23:41:12.390Z,96865.78
2022-11-29T23:43:38.655Z,96871.34
2022-11-29T23:46:04.952Z,96865.31
2022-11-29T23:48:31.211Z,96874.34
2022-11-29T23:50:57.463Z,96866.59
2022-11-29T23:53:23.736Z,96870.28
2022-11-29T23:55:50.022Z,96868.66
2022-11-29T23:58:16.318Z,96865.53
